sensor_id;sensor_type;location;lat;lon;timestamp;P1;durP1;ratioP1;P2;durP2;ratioP2
33954;SDS011;20233;50.804;7.126;2022-08-25T00:01:39;4.90;;;1.20;;
33954;SDS011;20233;50.804;7.126;2022-08-25T00:04:23;1.60;;;1.00;;
33954;SDS011;20233;50.804;7.126;2022-08-25T00:06:49;3.75;;;1.05;;
33954;SDS011;20233;50.804;7.126;2022-08-25T00:09:19;4.95;;;1.60;;
33954;SDS011;20233;50.804;7.126;2022-08-25T00:11:46;3.75;;;1.30;;
33954;SDS011;20233;50.804;7.126;2022-08-25T00:14:14;4.20;;;1.02;;
33954;SDS011;20233;50.804;7.126;2022-08-25T00:16:42;2.67;;;1.60;;
33954;SDS011;20233;50.804;7.126;2022-08-25T00:19:12;3.08;;;1.30;;
33954;SDS011;20233;50.804;7.126;2022-08-25T00:21:41;2.70;;;1.35;;
33954;SDS011;20233;50.804;7.126;2022-08-25T00:24:08;3.92;;;1.15;;
33954;SDS011;20233;50.804;7.126;2022-08-25T00:26:37;4.65;;;1.80;;
33954;SDS011;20233;50.804;7.126;2022-08-25T00:29:04;4.28;;;1.80;;
33954;SDS011;20233;50.804;7.126;2022-08-25T00:31:30;2.00;;;1.30;;
33954;SDS011;20233;50.804;7.126;2022-08-25T00:33:56;2.85;;;1.30;;
33954;SDS011;20233;50.804;7.126;2022-08-25T00:36:22;3.38;;;1.13;;
33954;SDS011;20233;50.804;7.126;2022-08-25T00:38:48;3.22;;;1.80;;
33954;SDS011;20233;50.804;7.126;2022-08-25T00:41:16;3.97;;;1.33;;
33954;SDS011;20233;50.804;7.126;2022-08-25T00:43:49;2.17;;;1.30;;
33954;SDS011;20233;50.804;7.126;2022-08-25T00:46:19;3.13;;;1.33;;
33954;SDS011;20233;50.804;7.126;2022-08-25T00:48:47;2.65;;;1.40;;
33954;SDS011;20233;50.804;7.126;2022-08-25T00:51:17;5.13;;;1.73;;
33954;SDS011;20233;50.804;7.126;2022-08-25T00:53:47;3.63;;;1.90;;
33954;SDS011;20233;50.804;7.126;2022-08-25T00:56:14;4.68;;;1.58;;
33954;SDS011;20233;50.804;7.126;2022-08-25T00:58:40;6.50;;;1.98;;
33954;SDS011;20233;50.804;7.126;2022-08-25T01:01:06;3.70;;;2.10;;
33954;SDS011;20233;50.804;7.126;2022-08-25T01:03:32;6.55;;;2.08;;
33954;SDS011;20233;50.804;7.126;2022-08-25T01:05:58;3.75;;;1.90;;
33954;SDS011;20233;50.804;7.126;2022-08-25T01:08:27;3.78;;;1.90;;
33954;SDS011;20233;50.804;7.126;2022-08-25T01:10:53;3.10;;;1.75;;
33954;SDS011;20233;50.804;7.126;2022-08-25T01:13:23;4.22;;;2.00;;
33954;SDS011;20233;50.804;7.126;2022-08-25T01:15:55;3.42;;;2.08;;
33954;SDS011;20233;50.804;7.126;2022-08-25T01:18:22;3.15;;;1.90;;
33954;SDS011;20233;50.804;7.126;2022-08-25T01:20:51;5.22;;;1.90;;
33954;SDS011;20233;50.804;7.126;2022-08-25T01:23:19;2.80;;;1.85;;
33954;SDS011;20233;50.804;7.126;2022-08-25T01:26:01;3.30;;;1.70;;
33954;SDS011;20233;50.804;7.126;2022-08-25T01:28:28;2.72;;;1.77;;
33954;SDS011;20233;50.804;7.126;2022-08-25T01:30:54;6.68;;;2.42;;
33954;SDS011;20233;50.804;7.126;2022-08-25T01:33:20;6.13;;;2.03;;
33954;SDS011;20233;50.804;7.126;2022-08-25T01:35:46;3.92;;;1.90;;
33954;SDS011;20233;50.804;7.126;2022-08-25T01:38:11;6.78;;;2.47;;
33954;SDS011;20233;50.804;7.126;2022-08-25T01:40:38;4.13;;;2.00;;
33954;SDS011;20233;50.804;7.126;2022-08-25T01:45:39;4.80;;;2.60;;
33954;SDS011;20233;50.804;7.126;2022-08-25T01:48:07;3.45;;;2.20;;
33954;SDS011;20233;50.804;7.126;2022-08-25T01:50:33;4.18;;;2.25;;
33954;SDS011;20233;50.804;7.126;2022-08-25T01:53:16;2.83;;;2.10;;
33954;SDS011;20233;50.804;7.126;2022-08-25T01:55:45;3.47;;;2.00;;
33954;SDS011;20233;50.804;7.126;2022-08-25T01:58:29;5.03;;;2.30;;
33954;SDS011;20233;50.804;7.126;2022-08-25T02:00:58;6.03;;;2.15;;
33954;SDS011;20233;50.804;7.126;2022-08-25T02:03:26;3.03;;;1.95;;
33954;SDS011;20233;50.804;7.126;2022-08-25T02:05:53;3.67;;;2.28;;
33954;SDS011;20233;50.804;7.126;2022-08-25T02:08:21;4.70;;;2.58;;
33954;SDS011;20233;50.804;7.126;2022-08-25T02:10:48;4.45;;;2.05;;
33954;SDS011;20233;50.804;7.126;2022-08-25T02:13:14;4.07;;;2.42;;
33954;SDS011;20233;50.804;7.126;2022-08-25T02:15:40;6.88;;;2.58;;
33954;SDS011;20233;50.804;7.126;2022-08-25T02:18:08;4.25;;;2.72;;
33954;SDS011;20233;50.804;7.126;2022-08-25T02:20:34;4.50;;;2.13;;
33954;SDS011;20233;50.804;7.126;2022-08-25T02:23:00;5.13;;;2.80;;
33954;SDS011;20233;50.804;7.126;2022-08-25T02:25:26;3.08;;;2.22;;
33954;SDS011;20233;50.804;7.126;2022-08-25T02:27:51;3.97;;;2.38;;
33954;SDS011;20233;50.804;7.126;2022-08-25T02:30:18;4.32;;;2.40;;
33954;SDS011;20233;50.804;7.126;2022-08-25T02:32:43;4.78;;;2.20;;
33954;SDS011;20233;50.804;7.126;2022-08-25T02:35:09;4.00;;;2.00;;
33954;SDS011;20233;50.804;7.126;2022-08-25T02:37:36;5.03;;;2.00;;
33954;SDS011;20233;50.804;7.126;2022-08-25T02:40:03;5.28;;;2.10;;
33954;SDS011;20233;50.804;7.126;2022-08-25T02:42:29;4.03;;;2.10;;
33954;SDS011;20233;50.804;7.126;2022-08-25T02:44:54;5.38;;;2.10;;
33954;SDS011;20233;50.804;7.126;2022-08-25T02:47:20;8.32;;;2.40;;
33954;SDS011;20233;50.804;7.126;2022-08-25T02:49:46;3.67;;;2.00;;
33954;SDS011;20233;50.804;7.126;2022-08-25T02:52:12;4.65;;;2.15;;
33954;SDS011;20233;50.804;7.126;2022-08-25T02:54:38;5.47;;;2.17;;
33954;SDS011;20233;50.804;7.126;2022-08-25T02:57:04;4.28;;;1.77;;
33954;SDS011;20233;50.804;7.126;2022-08-25T02:59:29;7.75;;;2.78;;
33954;SDS011;20233;50.804;7.126;2022-08-25T03:01:55;5.15;;;2.47;;
33954;SDS011;20233;50.804;7.126;2022-08-25T03:04:21;3.72;;;2.13;;
33954;SDS011;20233;50.804;7.126;2022-08-25T03:06:46;3.67;;;2.13;;
33954;SDS011;20233;50.804;7.126;2022-08-25T03:09:12;4.22;;;1.98;;
33954;SDS011;20233;50.804;7.126;2022-08-25T03:11:38;5.90;;;2.50;;
33954;SDS011;20233;50.804;7.126;2022-08-25T03:14:04;6.22;;;2.38;;
33954;SDS011;20233;50.804;7.126;2022-08-25T03:16:31;4.93;;;2.42;;
33954;SDS011;20233;50.804;7.126;2022-08-25T03:18:57;3.97;;;2.53;;
33954;SDS011;20233;50.804;7.126;2022-08-25T03:21:23;6.85;;;2.90;;
33954;SDS011;20233;50.804;7.126;2022-08-25T03:23:50;7.30;;;2.60;;
33954;SDS011;20233;50.804;7.126;2022-08-25T03:26:15;6.40;;;2.72;;
33954;SDS011;20233;50.804;7.126;2022-08-25T03:29:00;3.85;;;2.58;;
33954;SDS011;20233;50.804;7.126;2022-08-25T03:31:30;6.45;;;3.22;;
33954;SDS011;20233;50.804;7.126;2022-08-25T03:33:57;3.60;;;2.53;;
33954;SDS011;20233;50.804;7.126;2022-08-25T03:36:23;4.53;;;2.92;;
33954;SDS011;20233;50.804;7.126;2022-08-25T03:38:50;3.85;;;2.85;;
33954;SDS011;20233;50.804;7.126;2022-08-25T03:41:18;5.03;;;3.17;;
33954;SDS011;20233;50.804;7.126;2022-08-25T03:43:48;4.28;;;2.63;;
33954;SDS011;20233;50.804;7.126;2022-08-25T03:46:18;4.57;;;3.00;;
33954;SDS011;20233;50.804;7.126;2022-08-25T03:48:48;5.47;;;2.78;;
33954;SDS011;20233;50.804;7.126;2022-08-25T03:51:31;4.93;;;3.08;;
33954;SDS011;20233;50.804;7.126;2022-08-25T03:53:59;6.22;;;2.97;;
33954;SDS011;20233;50.804;7.126;2022-08-25T03:56:25;5.78;;;2.55;;
33954;SDS011;20233;50.804;7.126;2022-08-25T03:58:52;5.45;;;2.78;;
33954;SDS011;20233;50.804;7.126;2022-08-25T04:01:18;5.35;;;2.97;;
33954;SDS011;20233;50.804;7.126;2022-08-25T04:03:44;8.38;;;3.15;;
33954;SDS011;20233;50.804;7.126;2022-08-25T04:06:10;6.22;;;3.40;;
33954;SDS011;20233;50.804;7.126;2022-08-25T04:08:36;5.43;;;3.05;;
33954;SDS011;20233;50.804;7.126;2022-08-25T04:11:06;4.38;;;2.72;;
33954;SDS011;20233;50.804;7.126;2022-08-25T04:13:37;3.67;;;2.47;;
33954;SDS011;20233;50.804;7.126;2022-08-25T04:16:03;6.25;;;3.03;;
33954;SDS011;20233;50.804;7.126;2022-08-25T04:18:36;4.80;;;2.80;;
33954;SDS011;20233;50.804;7.126;2022-08-25T04:21:03;6.43;;;3.15;;
33954;SDS011;20233;50.804;7.126;2022-08-25T04:23:30;4.60;;;2.83;;
33954;SDS011;20233;50.804;7.126;2022-08-25T04:25:56;3.53;;;2.53;;
33954;SDS011;20233;50.804;7.126;2022-08-25T04:28:22;5.32;;;3.22;;
33954;SDS011;20233;50.804;7.126;2022-08-25T04:30:47;5.72;;;2.70;;
33954;SDS011;20233;50.804;7.126;2022-08-25T04:33:13;5.20;;;2.72;;
33954;SDS011;20233;50.804;7.126;2022-08-25T04:35:38;12.85;;;2.90;;
33954;SDS011;20233;50.804;7.126;2022-08-25T04:38:05;4.28;;;2.55;;
33954;SDS011;20233;50.804;7.126;2022-08-25T04:40:31;7.25;;;2.45;;
33954;SDS011;20233;50.804;7.126;2022-08-25T04:42:56;5.07;;;2.55;;
33954;SDS011;20233;50.804;7.126;2022-08-25T04:45:22;5.10;;;2.10;;
33954;SDS011;20233;50.804;7.126;2022-08-25T04:47:48;2.90;;;2.13;;
33954;SDS011;20233;50.804;7.126;2022-08-25T04:50:13;5.38;;;2.33;;
33954;SDS011;20233;50.804;7.126;2022-08-25T04:52:39;6.47;;;2.50;;
33954;SDS011;20233;50.804;7.126;2022-08-25T04:55:04;3.92;;;2.30;;
33954;SDS011;20233;50.804;7.126;2022-08-25T04:57:31;4.63;;;2.13;;
33954;SDS011;20233;50.804;7.126;2022-08-25T04:59:56;11.98;;;2.83;;
33954;SDS011;20233;50.804;7.126;2022-08-25T05:02:22;5.50;;;2.63;;
33954;SDS011;20233;50.804;7.126;2022-08-25T05:04:49;7.95;;;3.10;;
33954;SDS011;20233;50.804;7.126;2022-08-25T05:07:15;7.70;;;2.90;;
33954;SDS011;20233;50.804;7.126;2022-08-25T05:09:40;5.43;;;2.58;;
33954;SDS011;20233;50.804;7.126;2022-08-25T05:12:06;6.88;;;2.58;;
33954;SDS011;20233;50.804;7.126;2022-08-25T05:14:32;7.85;;;3.20;;
33954;SDS011;20233;50.804;7.126;2022-08-25T05:16:57;7.18;;;2.65;;
33954;SDS011;20233;50.804;7.126;2022-08-25T05:19:23;7.15;;;3.05;;
33954;SDS011;20233;50.804;7.126;2022-08-25T05:21:50;6.55;;;2.67;;
33954;SDS011;20233;50.804;7.126;2022-08-25T05:24:16;4.55;;;2.47;;
33954;SDS011;20233;50.804;7.126;2022-08-25T05:26:41;7.25;;;2.90;;
33954;SDS011;20233;50.804;7.126;2022-08-25T05:29:07;5.40;;;3.20;;
33954;SDS011;20233;50.804;7.126;2022-08-25T05:31:34;4.15;;;2.50;;
33954;SDS011;20233;50.804;7.126;2022-08-25T05:34:03;6.63;;;2.95;;
33954;SDS011;20233;50.804;7.126;2022-08-25T05:36:30;7.53;;;3.30;;
33954;SDS011;20233;50.804;7.126;2022-08-25T05:38:57;6.30;;;3.08;;
33954;SDS011;20233;50.804;7.126;2022-08-25T05:41:24;7.00;;;3.33;;
33954;SDS011;20233;50.804;7.126;2022-08-25T05:43:53;6.33;;;2.97;;
33954;SDS011;20233;50.804;7.126;2022-08-25T05:46:18;7.18;;;2.80;;
33954;SDS011;20233;50.804;7.126;2022-08-25T05:48:46;7.25;;;3.03;;
33954;SDS011;20233;50.804;7.126;2022-08-25T05:51:12;8.05;;;3.25;;
33954;SDS011;20233;50.804;7.126;2022-08-25T05:53:43;7.55;;;2.80;;
33954;SDS011;20233;50.804;7.126;2022-08-25T05:56:11;9.25;;;2.88;;
33954;SDS011;20233;50.804;7.126;2022-08-25T05:58:38;7.25;;;2.92;;
33954;SDS011;20233;50.804;7.126;2022-08-25T06:01:04;7.25;;;2.88;;
33954;SDS011;20233;50.804;7.126;2022-08-25T06:03:49;6.05;;;3.00;;
33954;SDS011;20233;50.804;7.126;2022-08-25T06:06:18;6.78;;;2.78;;
33954;SDS011;20233;50.804;7.126;2022-08-25T06:08:45;7.65;;;3.63;;
33954;SDS011;20233;50.804;7.126;2022-08-25T06:11:11;7.50;;;2.72;;
33954;SDS011;20233;50.804;7.126;2022-08-25T06:13:38;7.25;;;3.60;;
33954;SDS011;20233;50.804;7.126;2022-08-25T06:16:04;8.07;;;2.80;;
33954;SDS011;20233;50.804;7.126;2022-08-25T06:18:30;6.72;;;3.13;;
33954;SDS011;20233;50.804;7.126;2022-08-25T06:20:56;7.60;;;2.63;;
33954;SDS011;20233;50.804;7.126;2022-08-25T06:23:21;4.85;;;2.60;;
33954;SDS011;20233;50.804;7.126;2022-08-25T06:25:51;7.28;;;2.85;;
33954;SDS011;20233;50.804;7.126;2022-08-25T06:30:44;5.88;;;2.65;;
33954;SDS011;20233;50.804;7.126;2022-08-25T06:33:10;7.22;;;3.20;;
33954;SDS011;20233;50.804;7.126;2022-08-25T06:35:36;4.97;;;2.92;;
33954;SDS011;20233;50.804;7.126;2022-08-25T06:38:06;4.68;;;2.95;;
33954;SDS011;20233;50.804;7.126;2022-08-25T06:40:31;6.20;;;2.53;;
33954;SDS011;20233;50.804;7.126;2022-08-25T06:42:57;4.75;;;2.75;;
33954;SDS011;20233;50.804;7.126;2022-08-25T06:45:22;5.68;;;3.88;;
33954;SDS011;20233;50.804;7.126;2022-08-25T06:47:48;3.95;;;2.90;;
33954;SDS011;20233;50.804;7.126;2022-08-25T06:50:13;7.22;;;2.67;;
33954;SDS011;20233;50.804;7.126;2022-08-25T06:52:39;4.15;;;2.83;;
33954;SDS011;20233;50.804;7.126;2022-08-25T06:55:05;4.35;;;3.10;;
33954;SDS011;20233;50.804;7.126;2022-08-25T06:57:31;7.30;;;2.83;;
33954;SDS011;20233;50.804;7.126;2022-08-25T06:59:59;4.63;;;2.88;;
33954;SDS011;20233;50.804;7.126;2022-08-25T07:02:25;7.55;;;3.15;;
33954;SDS011;20233;50.804;7.126;2022-08-25T07:04:51;4.07;;;3.08;;
33954;SDS011;20233;50.804;7.126;2022-08-25T07:07:17;10.10;;;3.10;;
33954;SDS011;20233;50.804;7.126;2022-08-25T07:09:43;5.68;;;2.97;;
33954;SDS011;20233;50.804;7.126;2022-08-25T07:12:08;7.30;;;3.33;;
33954;SDS011;20233;50.804;7.126;2022-08-25T07:14:34;6.95;;;3.42;;
33954;SDS011;20233;50.804;7.126;2022-08-25T07:17:00;6.85;;;3.10;;
33954;SDS011;20233;50.804;7.126;2022-08-25T07:19:26;6.75;;;3.33;;
33954;SDS011;20233;50.804;7.126;2022-08-25T07:21:52;5.82;;;2.70;;
33954;SDS011;20233;50.804;7.126;2022-08-25T07:24:18;9.20;;;4.25;;
33954;SDS011;20233;50.804;7.126;2022-08-25T07:26:45;4.95;;;2.92;;
33954;SDS011;20233;50.804;7.126;2022-08-25T07:29:13;7.28;;;3.40;;
33954;SDS011;20233;50.804;7.126;2022-08-25T07:31:44;6.72;;;3.05;;
33954;SDS011;20233;50.804;7.126;2022-08-25T07:34:09;7.75;;;3.30;;
33954;SDS011;20233;50.804;7.126;2022-08-25T07:36:54;5.28;;;3.13;;
33954;SDS011;20233;50.804;7.126;2022-08-25T07:39:21;8.35;;;3.88;;
33954;SDS011;20233;50.804;7.126;2022-08-25T07:41:48;6.07;;;3.38;;
33954;SDS011;20233;50.804;7.126;2022-08-25T07:44:14;5.38;;;2.88;;
33954;SDS011;20233;50.804;7.126;2022-08-25T07:46:40;5.22;;;2.63;;
33954;SDS011;20233;50.804;7.126;2022-08-25T07:49:05;8.85;;;4.03;;
33954;SDS011;20233;50.804;7.126;2022-08-25T07:51:31;5.72;;;3.25;;
33954;SDS011;20233;50.804;7.126;2022-08-25T07:53:57;5.07;;;3.28;;
33954;SDS011;20233;50.804;7.126;2022-08-25T07:56:23;7.35;;;3.67;;
33954;SDS011;20233;50.804;7.126;2022-08-25T07:58:49;6.03;;;3.20;;
33954;SDS011;20233;50.804;7.126;2022-08-25T08:01:15;4.97;;;3.30;;
33954;SDS011;20233;50.804;7.126;2022-08-25T08:03:43;5.38;;;3.30;;
33954;SDS011;20233;50.804;7.126;2022-08-25T08:06:10;6.10;;;3.25;;
33954;SDS011;20233;50.804;7.126;2022-08-25T08:08:37;4.43;;;2.47;;
33954;SDS011;20233;50.804;7.126;2022-08-25T08:11:06;4.70;;;3.45;;
33954;SDS011;20233;50.804;7.126;2022-08-25T08:13:45;3.90;;;2.63;;
33954;SDS011;20233;50.804;7.126;2022-08-25T08:16:11;8.43;;;2.60;;
33954;SDS011;20233;50.804;7.126;2022-08-25T08:18:40;6.55;;;3.15;;
33954;SDS011;20233;50.804;7.126;2022-08-25T08:21:11;7.00;;;3.45;;
33954;SDS011;20233;50.804;7.126;2022-08-25T08:23:38;4.38;;;2.83;;
33954;SDS011;20233;50.804;7.126;2022-08-25T08:26:03;6.43;;;3.13;;
33954;SDS011;20233;50.804;7.126;2022-08-25T08:28:29;5.00;;;2.72;;
33954;SDS011;20233;50.804;7.126;2022-08-25T08:30:55;3.40;;;2.53;;
33954;SDS011;20233;50.804;7.126;2022-08-25T08:33:21;6.28;;;3.35;;
33954;SDS011;20233;50.804;7.126;2022-08-25T08:35:54;5.47;;;3.13;;
33954;SDS011;20233;50.804;7.126;2022-08-25T08:38:21;5.85;;;2.90;;
33954;SDS011;20233;50.804;7.126;2022-08-25T08:40:49;7.85;;;2.67;;
33954;SDS011;20233;50.804;7.126;2022-08-25T08:43:54;5.28;;;2.60;;
33954;SDS011;20233;50.804;7.126;2022-08-25T08:46:31;6.70;;;2.75;;
33954;SDS011;20233;50.804;7.126;2022-08-25T08:49:13;5.20;;;2.60;;
33954;SDS011;20233;50.804;7.126;2022-08-25T08:51:50;4.03;;;2.90;;
33954;SDS011;20233;50.804;7.126;2022-08-25T08:54:21;3.55;;;2.22;;
33954;SDS011;20233;50.804;7.126;2022-08-25T08:56:49;5.07;;;2.50;;
33954;SDS011;20233;50.804;7.126;2022-08-25T08:59:27;3.50;;;2.55;;
33954;SDS011;20233;50.804;7.126;2022-08-25T09:02:02;3.42;;;2.45;;
33954;SDS011;20233;50.804;7.126;2022-08-25T09:04:46;5.80;;;2.97;;
33954;SDS011;20233;50.804;7.126;2022-08-25T09:07:18;3.78;;;2.58;;
33954;SDS011;20233;50.804;7.126;2022-08-25T09:09:47;5.32;;;2.63;;
33954;SDS011;20233;50.804;7.126;2022-08-25T09:12:20;5.32;;;2.85;;
33954;SDS011;20233;50.804;7.126;2022-08-25T09:21:12;5.97;;;3.00;;
33954;SDS011;20233;50.804;7.126;2022-08-25T09:27:07;3.25;;;2.47;;
33954;SDS011;20233;50.804;7.126;2022-08-25T09:32:39;4.28;;;2.83;;
33954;SDS011;20233;50.804;7.126;2022-08-25T09:35:08;6.90;;;3.05;;
33954;SDS011;20233;50.804;7.126;2022-08-25T09:37:40;6.45;;;2.72;;
33954;SDS011;20233;50.804;7.126;2022-08-25T09:40:06;5.25;;;2.70;;
33954;SDS011;20233;50.804;7.126;2022-08-25T09:42:47;3.03;;;2.03;;
33954;SDS011;20233;50.804;7.126;2022-08-25T09:45:14;7.47;;;2.80;;
33954;SDS011;20233;50.804;7.126;2022-08-25T09:47:43;3.42;;;2.50;;
33954;SDS011;20233;50.804;7.126;2022-08-25T09:50:14;4.53;;;2.42;;
33954;SDS011;20233;50.804;7.126;2022-08-25T09:52:41;3.70;;;2.70;;
33954;SDS011;20233;50.804;7.126;2022-08-25T10:02:43;3.80;;;2.78;;
33954;SDS011;20233;50.804;7.126;2022-08-25T10:05:25;3.22;;;2.63;;
33954;SDS011;20233;50.804;7.126;2022-08-25T10:07:57;4.80;;;2.45;;
33954;SDS011;20233;50.804;7.126;2022-08-25T10:12:58;3.85;;;2.50;;
33954;SDS011;20233;50.804;7.126;2022-08-25T10:17:54;4.25;;;2.58;;
33954;SDS011;20233;50.804;7.126;2022-08-25T10:20:24;6.07;;;2.45;;
33954;SDS011;20233;50.804;7.126;2022-08-25T10:22:51;4.03;;;2.35;;
33954;SDS011;20233;50.804;7.126;2022-08-25T10:25:40;5.13;;;2.80;;
33954;SDS011;20233;50.804;7.126;2022-08-25T10:28:21;6.00;;;3.15;;
33954;SDS011;20233;50.804;7.126;2022-08-25T10:31:17;3.58;;;2.58;;
33954;SDS011;20233;50.804;7.126;2022-08-25T10:34:09;6.25;;;3.08;;
33954;SDS011;20233;50.804;7.126;2022-08-25T10:36:52;3.40;;;2.78;;
33954;SDS011;20233;50.804;7.126;2022-08-25T10:39:42;4.18;;;2.90;;
33954;SDS011;20233;50.804;7.126;2022-08-25T10:42:14;3.33;;;2.53;;
33954;SDS011;20233;50.804;7.126;2022-08-25T10:44:48;3.72;;;2.95;;
33954;SDS011;20233;50.804;7.126;2022-08-25T10:50:12;4.22;;;2.60;;
33954;SDS011;20233;50.804;7.126;2022-08-25T11:04:22;4.63;;;2.50;;
33954;SDS011;20233;50.804;7.126;2022-08-25T11:07:02;4.40;;;3.03;;
33954;SDS011;20233;50.804;7.126;2022-08-25T11:09:33;5.38;;;2.40;;
33954;SDS011;20233;50.804;7.126;2022-08-25T11:14:38;6.18;;;2.65;;
33954;SDS011;20233;50.804;7.126;2022-08-25T11:17:17;3.42;;;2.10;;
33954;SDS011;20233;50.804;7.126;2022-08-25T11:19:49;3.08;;;2.40;;
33954;SDS011;20233;50.804;7.126;2022-08-25T11:22:24;2.75;;;1.83;;
33954;SDS011;20233;50.804;7.126;2022-08-25T11:30:44;5.65;;;2.55;;
33954;SDS011;20233;50.804;7.126;2022-08-25T11:33:13;3.25;;;1.92;;
33954;SDS011;20233;50.804;7.126;2022-08-25T11:35:42;4.22;;;2.33;;
33954;SDS011;20233;50.804;7.126;2022-08-25T11:38:27;5.15;;;2.20;;
33954;SDS011;20233;50.804;7.126;2022-08-25T11:41:55;4.45;;;2.33;;
33954;SDS011;20233;50.804;7.126;2022-08-25T11:44:10;3.20;;;2.38;;
33954;SDS011;20233;50.804;7.126;2022-08-25T11:47:06;4.85;;;1.90;;
33954;SDS011;20233;50.804;7.126;2022-08-25T11:50:06;3.45;;;1.58;;
33954;SDS011;20233;50.804;7.126;2022-08-25T11:52:48;5.32;;;2.00;;
33954;SDS011;20233;50.804;7.126;2022-08-25T12:01:00;2.83;;;1.65;;
33954;SDS011;20233;50.804;7.126;2022-08-25T12:08:47;3.58;;;1.67;;
33954;SDS011;20233;50.804;7.126;2022-08-25T12:14:14;1.70;;;1.00;;
33954;SDS011;20233;50.804;7.126;2022-08-25T12:27:37;4.63;;;1.85;;
33954;SDS011;20233;50.804;7.126;2022-08-25T12:30:16;3.13;;;1.77;;
33954;SDS011;20233;50.804;7.126;2022-08-25T12:35:52;3.88;;;1.80;;
33954;SDS011;20233;50.804;7.126;2022-08-25T12:38:43;4.53;;;1.55;;
33954;SDS011;20233;50.804;7.126;2022-08-25T12:41:15;2.88;;;1.35;;
33954;SDS011;20233;50.804;7.126;2022-08-25T12:43:48;2.53;;;1.60;;
33954;SDS011;20233;50.804;7.126;2022-08-25T13:00:14;2.30;;;1.25;;
33954;SDS011;20233;50.804;7.126;2022-08-25T13:11:29;2.42;;;1.20;;
33954;SDS011;20233;50.804;7.126;2022-08-25T13:16:57;3.53;;;1.65;;
33954;SDS011;20233;50.804;7.126;2022-08-25T13:19:23;2.30;;;1.25;;
33954;SDS011;20233;50.804;7.126;2022-08-25T13:21:51;3.80;;;1.38;;
33954;SDS011;20233;50.804;7.126;2022-08-25T13:24:22;2.67;;;1.35;;
33954;SDS011;20233;50.804;7.126;2022-08-25T13:27:00;2.58;;;0.90;;
33954;SDS011;20233;50.804;7.126;2022-08-25T13:29:29;1.67;;;0.93;;
33954;SDS011;20233;50.804;7.126;2022-08-25T13:32:01;4.18;;;1.40;;
33954;SDS011;20233;50.804;7.126;2022-08-25T13:34:35;1.98;;;1.13;;
33954;SDS011;20233;50.804;7.126;2022-08-25T13:42:39;3.05;;;1.13;;
33954;SDS011;20233;50.804;7.126;2022-08-25T13:45:18;5.10;;;1.20;;
33954;SDS011;20233;50.804;7.126;2022-08-25T13:47:47;2.38;;;1.20;;
33954;SDS011;20233;50.804;7.126;2022-08-25T13:50:15;1.80;;;0.93;;
33954;SDS011;20233;50.804;7.126;2022-08-25T13:53:23;3.15;;;1.17;;
33954;SDS011;20233;50.804;7.126;2022-08-25T13:55:53;3.95;;;1.50;;
33954;SDS011;20233;50.804;7.126;2022-08-25T13:58:32;4.15;;;0.98;;
33954;SDS011;20233;50.804;7.126;2022-08-25T14:01:08;5.40;;;1.67;;
33954;SDS011;20233;50.804;7.126;2022-08-25T14:03:44;3.15;;;1.30;;
33954;SDS011;20233;50.804;7.126;2022-08-25T14:08:40;1.88;;;1.25;;
33954;SDS011;20233;50.804;7.126;2022-08-25T14:13:58;2.90;;;1.13;;
33954;SDS011;20233;50.804;7.126;2022-08-25T14:16:30;3.08;;;1.10;;
33954;SDS011;20233;50.804;7.126;2022-08-25T14:19:00;6.00;;;0.90;;
33954;SDS011;20233;50.804;7.126;2022-08-25T14:21:28;3.58;;;1.00;;
33954;SDS011;20233;50.804;7.126;2022-08-25T14:23:55;3.00;;;0.88;;
33954;SDS011;20233;50.804;7.126;2022-08-25T14:26:21;2.28;;;1.08;;
33954;SDS011;20233;50.804;7.126;2022-08-25T14:28:47;3.05;;;0.80;;
33954;SDS011;20233;50.804;7.126;2022-08-25T14:31:15;4.05;;;1.08;;
33954;SDS011;20233;50.804;7.126;2022-08-25T14:33:46;1.67;;;0.80;;
33954;SDS011;20233;50.804;7.126;2022-08-25T14:36:20;2.92;;;0.88;;
33954;SDS011;20233;50.804;7.126;2022-08-25T14:38:46;2.25;;;1.20;;
33954;SDS011;20233;50.804;7.126;2022-08-25T14:41:12;1.95;;;1.10;;
33954;SDS011;20233;50.804;7.126;2022-08-25T14:43:38;2.10;;;1.15;;
33954;SDS011;20233;50.804;7.126;2022-08-25T14:46:06;2.05;;;1.00;;
33954;SDS011;20233;50.804;7.126;2022-08-25T14:48:43;3.50;;;0.83;;
33954;SDS011;20233;50.804;7.126;2022-08-25T14:51:11;2.03;;;0.95;;
33954;SDS011;20233;50.804;7.126;2022-08-25T14:53:39;3.08;;;0.80;;
33954;SDS011;20233;50.804;7.126;2022-08-25T14:56:05;3.03;;;1.08;;
33954;SDS011;20233;50.804;7.126;2022-08-25T14:58:31;1.88;;;0.98;;
33954;SDS011;20233;50.804;7.126;2022-08-25T15:00:57;2.45;;;0.95;;
33954;SDS011;20233;50.804;7.126;2022-08-25T15:03:30;2.60;;;1.48;;
33954;SDS011;20233;50.804;7.126;2022-08-25T15:06:00;1.85;;;1.10;;
33954;SDS011;20233;50.804;7.126;2022-08-25T15:08:26;1.92;;;0.95;;
33954;SDS011;20233;50.804;7.126;2022-08-25T15:11:11;2.85;;;0.85;;
33954;SDS011;20233;50.804;7.126;2022-08-25T15:13:38;3.08;;;0.98;;
33954;SDS011;20233;50.804;7.126;2022-08-25T15:16:04;2.83;;;0.68;;
33954;SDS011;20233;50.804;7.126;2022-08-25T15:18:32;1.65;;;0.75;;
33954;SDS011;20233;50.804;7.126;2022-08-25T15:20:59;1.83;;;0.90;;
33954;SDS011;20233;50.804;7.126;2022-08-25T15:23:24;2.30;;;1.20;;
33954;SDS011;20233;50.804;7.126;2022-08-25T15:25:50;2.53;;;0.93;;
33954;SDS011;20233;50.804;7.126;2022-08-25T15:28:19;2.72;;;0.88;;
33954;SDS011;20233;50.804;7.126;2022-08-25T15:30:45;4.18;;;1.17;;
33954;SDS011;20233;50.804;7.126;2022-08-25T15:33:12;2.70;;;0.82;;
33954;SDS011;20233;50.804;7.126;2022-08-25T15:35:38;1.55;;;0.60;;
33954;SDS011;20233;50.804;7.126;2022-08-25T15:38:04;2.55;;;1.27;;
33954;SDS011;20233;50.804;7.126;2022-08-25T15:40:30;2.00;;;1.00;;
33954;SDS011;20233;50.804;7.126;2022-08-25T15:42:57;1.98;;;0.82;;
33954;SDS011;20233;50.804;7.126;2022-08-25T15:45:22;1.42;;;1.17;;
33954;SDS011;20233;50.804;7.126;2022-08-25T15:47:48;3.53;;;1.23;;
33954;SDS011;20233;50.804;7.126;2022-08-25T15:50:15;3.08;;;0.90;;
33954;SDS011;20233;50.804;7.126;2022-08-25T15:55:09;4.10;;;0.90;;
33954;SDS011;20233;50.804;7.126;2022-08-25T15:57:35;1.95;;;0.90;;
33954;SDS011;20233;50.804;7.126;2022-08-25T16:00:02;1.33;;;0.50;;
33954;SDS011;20233;50.804;7.126;2022-08-25T16:02:30;1.40;;;0.63;;
33954;SDS011;20233;50.804;7.126;2022-08-25T16:04:57;1.77;;;0.98;;
33954;SDS011;20233;50.804;7.126;2022-08-25T16:07:23;2.13;;;0.80;;
33954;SDS011;20233;50.804;7.126;2022-08-25T16:09:48;2.05;;;0.88;;
33954;SDS011;20233;50.804;7.126;2022-08-25T16:12:14;3.30;;;1.10;;
33954;SDS011;20233;50.804;7.126;2022-08-25T16:14:39;3.53;;;1.05;;
33954;SDS011;20233;50.804;7.126;2022-08-25T16:17:05;1.65;;;0.98;;
33954;SDS011;20233;50.804;7.126;2022-08-25T16:19:31;2.60;;;0.88;;
33954;SDS011;20233;50.804;7.126;2022-08-25T16:21:57;3.08;;;1.10;;
33954;SDS011;20233;50.804;7.126;2022-08-25T16:24:24;4.95;;;2.92;;
33954;SDS011;20233;50.804;7.126;2022-08-25T16:26:50;4.55;;;1.73;;
33954;SDS011;20233;50.804;7.126;2022-08-25T16:29:16;3.83;;;1.17;;
33954;SDS011;20233;50.804;7.126;2022-08-25T16:31:42;3.42;;;1.20;;
33954;SDS011;20233;50.804;7.126;2022-08-25T16:34:09;2.08;;;0.90;;
33954;SDS011;20233;50.804;7.126;2022-08-25T16:36:34;3.17;;;1.23;;
33954;SDS011;20233;50.804;7.126;2022-08-25T16:39:01;3.13;;;1.02;;
33954;SDS011;20233;50.804;7.126;2022-08-25T16:41:28;2.25;;;1.30;;
33954;SDS011;20233;50.804;7.126;2022-08-25T16:43:58;2.38;;;1.10;;
33954;SDS011;20233;50.804;7.126;2022-08-25T16:46:31;2.50;;;1.35;;
33954;SDS011;20233;50.804;7.126;2022-08-25T16:49:00;2.97;;;1.90;;
33954;SDS011;20233;50.804;7.126;2022-08-25T16:51:27;3.42;;;1.98;;
33954;SDS011;20233;50.804;7.126;2022-08-25T16:53:53;2.90;;;1.35;;
33954;SDS011;20233;50.804;7.126;2022-08-25T16:56:38;2.30;;;1.48;;
33954;SDS011;20233;50.804;7.126;2022-08-25T16:59:06;2.60;;;1.42;;
33954;SDS011;20233;50.804;7.126;2022-08-25T17:01:33;5.57;;;1.60;;